createdAt,value
2019-03-18T00:00:19.553Z,2.45
2019-03-18T00:02:48.143Z,1.20
2019-03-18T00:05:16.652Z,1.27
2019-03-18T00:07:45.071Z,1.15
2019-03-18T00:10:13.909Z,1.65
2019-03-18T00:12:42.328Z,1.85
2019-03-18T00:15:10.923Z,1.57
2019-03-18T00:17:39.342Z,1.77
2019-03-18T00:20:09.791Z,2.50
2019-03-18T00:22:38.276Z,2.58
2019-03-18T00:25:12.039Z,3.12
2019-03-18T00:27:40.529Z,2.00
2019-03-18T00:30:16.890Z,2.20
2019-03-18T00:32:45.371Z,3.33
2019-03-18T00:35:14.078Z,5.20
2019-03-18T00:37:42.666Z,2.20
2019-03-18T00:40:16.458Z,1.52
2019-03-18T00:42:45.097Z,2.50
2019-03-18T00:45:15.619Z,3.77
2019-03-18T00:47:44.440Z,1.55
2019-03-18T00:50:17.048Z,1.60
2019-03-18T00:52:45.726Z,2.05
2019-03-18T00:55:14.413Z,2.45
2019-03-18T00:57:43.060Z,1.50
2019-03-18T01:00:19.341Z,3.98
2019-03-18T01:02:49.785Z,2.05
2019-03-18T01:05:18.655Z,1.65
2019-03-18T01:07:47.259Z,2.45
2019-03-18T01:10:18.788Z,4.80
2019-03-18T01:12:47.336Z,1.65
2019-03-18T01:15:27.481Z,3.65
2019-03-18T01:17:46.470Z,1.57
2019-03-18T01:20:15.328Z,1.62
2019-03-18T01:22:43.741Z,4.78
2019-03-18T01:25:12.343Z,1.77
2019-03-18T01:27:40.761Z,1.80
2019-03-18T01:30:13.844Z,2.75
2019-03-18T01:32:42.544Z,2.42
2019-03-18T01:35:11.228Z,3.85
2019-03-18T01:37:39.902Z,1.85
2019-03-18T01:40:13.248Z,2.77
2019-03-18T01:42:41.670Z,2.00
2019-03-18T01:45:11.816Z,1.45
2019-03-18T01:47:40.523Z,1.60
2019-03-18T01:50:13.834Z,1.32
2019-03-18T01:52:42.376Z,1.98
2019-03-18T01:55:10.956Z,1.57
2019-03-18T01:57:39.410Z,2.15
2019-03-18T02:00:13.213Z,1.92
2019-03-18T02:02:41.725Z,1.75
2019-03-18T02:05:11.200Z,1.25
2019-03-18T02:07:39.649Z,3.15
2019-03-18T02:10:17.250Z,3.72
2019-03-18T02:12:45.737Z,1.35
2019-03-18T02:15:15.236Z,1.00
2019-03-18T02:17:43.717Z,2.12
2019-03-18T02:20:14.228Z,2.80
2019-03-18T02:22:42.675Z,2.58
2019-03-18T02:25:11.923Z,1.45
2019-03-18T02:27:40.423Z,1.70
2019-03-18T02:30:14.099Z,2.62
2019-03-18T02:32:44.055Z,2.12
2019-03-18T02:35:12.630Z,1.35
2019-03-18T02:37:41.061Z,1.10
2019-03-18T02:40:10.770Z,1.35
2019-03-18T02:42:39.255Z,2.55
2019-03-18T02:45:09.621Z,2.00
2019-03-18T02:47:38.070Z,3.00
2019-03-18T02:50:07.335Z,1.52
2019-03-18T02:52:36.083Z,1.98
2019-03-18T02:55:05.536Z,2.95
2019-03-18T02:57:33.937Z,1.57
2019-03-18T03:00:02.388Z,0.93
2019-03-18T03:02:30.799Z,1.80
2019-03-18T03:04:59.236Z,0.80
2019-03-18T03:07:27.726Z,1.10
2019-03-18T03:09:56.158Z,3.08
2019-03-18T03:12:24.651Z,2.15
2019-03-18T03:14:53.085Z,1.20
2019-03-18T03:17:22.078Z,2.70
2019-03-18T03:19:50.736Z,1.00
2019-03-18T03:22:19.170Z,2.77
2019-03-18T03:24:47.614Z,1.00
2019-03-18T03:27:16.053Z,1.07
2019-03-18T03:29:44.478Z,2.75
2019-03-18T03:32:12.891Z,1.80
2019-03-18T03:34:41.300Z,0.95
2019-03-18T03:37:09.722Z,1.42
2019-03-18T03:39:38.235Z,3.12
2019-03-18T03:42:06.714Z,2.25
2019-03-18T03:44:35.240Z,3.42
2019-03-18T03:47:03.724Z,2.15
2019-03-18T03:49:32.190Z,3.22
2019-03-18T03:52:00.578Z,3.60
2019-03-18T03:54:29.479Z,2.60
2019-03-18T03:56:58.295Z,2.12
2019-03-18T03:59:26.856Z,2.65
2019-03-18T04:01:55.358Z,2.40
2019-03-18T04:04:23.836Z,4.05
2019-03-18T04:06:52.614Z,3.30
2019-03-18T04:09:21.175Z,3.83
2019-03-18T04:11:49.608Z,3.22
2019-03-18T04:14:18.119Z,4.03
2019-03-18T04:17:00.720Z,2.15
2019-03-18T04:19:17.121Z,2.60
2019-03-18T04:21:45.516Z,1.72
2019-03-18T04:24:14.001Z,1.70
2019-03-18T04:26:42.764Z,2.62
2019-03-18T04:29:11.185Z,2.33
2019-03-18T04:31:39.613Z,1.60
2019-03-18T04:34:08.211Z,2.02
2019-03-18T04:36:36.651Z,1.65
2019-03-18T04:39:06.899Z,2.83
2019-03-18T04:41:35.380Z,1.40
2019-03-18T04:44:03.807Z,1.55
2019-03-18T04:46:32.267Z,1.30
2019-03-18T04:49:00.684Z,2.17
2019-03-18T04:51:29.096Z,2.58
2019-03-18T04:53:57.537Z,1.98
2019-03-18T04:56:25.946Z,2.17
2019-03-18T04:58:54.388Z,2.55
2019-03-18T05:01:22.809Z,2.00
2019-03-18T05:03:51.308Z,3.60
2019-03-18T05:06:19.735Z,2.22
2019-03-18T05:08:48.153Z,1.70
2019-03-18T05:11:16.595Z,2.05
2019-03-18T05:13:45.053Z,2.62
2019-03-18T05:16:13.610Z,3.35
2019-03-18T05:18:42.021Z,3.67
2019-03-18T05:21:10.455Z,2.90
2019-03-18T05:23:38.900Z,3.20
2019-03-18T05:26:07.368Z,2.85
2019-03-18T05:28:35.791Z,3.10
2019-03-18T05:31:04.303Z,5.80
2019-03-18T05:33:32.749Z,2.80
2019-03-18T05:36:01.188Z,4.08
2019-03-18T05:38:29.621Z,3.87
2019-03-18T05:40:58.072Z,6.30
2019-03-18T05:43:26.509Z,4.62
2019-03-18T05:45:54.956Z,5.40
2019-03-18T05:48:23.364Z,2.92
2019-03-18T05:50:51.876Z,7.70
2019-03-18T05:53:20.301Z,2.20
2019-03-18T05:55:48.786Z,2.02
2019-03-18T05:58:17.271Z,3.45
2019-03-18T06:00:45.771Z,2.20
2019-03-18T06:03:14.193Z,3.15
2019-03-18T06:05:42.732Z,1.82
2019-03-18T06:08:11.761Z,3.77
2019-03-18T06:10:40.703Z,3.17
2019-03-18T06:13:09.103Z,4.47
2019-03-18T06:15:37.524Z,10.95
2019-03-18T06:18:05.966Z,2.90
2019-03-18T06:20:34.391Z,2.85
2019-03-18T06:23:02.830Z,3.35
2019-03-18T06:25:31.275Z,5.97
2019-03-18T06:27:59.742Z,2.98
2019-03-18T06:30:28.188Z,6.35
2019-03-18T06:32:56.614Z,2.80
2019-03-18T06:35:25.072Z,5.10
2019-03-18T06:37:53.508Z,3.60
2019-03-18T06:40:21.917Z,7.50
2019-03-18T06:42:50.372Z,5.75
2019-03-18T06:45:18.795Z,4.25
2019-03-18T06:47:47.218Z,5.67
2019-03-18T06:50:15.699Z,6.97
2019-03-18T06:52:44.127Z,5.92
2019-03-18T06:55:12.826Z,2.95
2019-03-18T06:57:41.225Z,4.25
2019-03-18T07:00:17.416Z,3.20
2019-03-18T07:02:45.824Z,2.22
2019-03-18T07:05:14.568Z,1.80
2019-03-18T07:07:43.111Z,3.30
2019-03-18T07:10:13.450Z,3.12
2019-03-18T07:12:41.876Z,2.77
2019-03-18T07:15:13.362Z,1.87
2019-03-18T07:17:41.333Z,1.52
2019-03-18T07:20:14.312Z,2.35
2019-03-18T07:22:42.791Z,2.47
2019-03-18T07:25:11.321Z,2.92
2019-03-18T07:27:39.734Z,2.08
2019-03-18T07:30:13.600Z,1.62
2019-03-18T07:32:42.084Z,1.20
2019-03-18T07:35:10.578Z,1.15
2019-03-18T07:37:39.020Z,1.40
2019-03-18T07:40:12.357Z,2.35
2019-03-18T07:42:40.869Z,4.22
2019-03-18T07:45:11.331Z,1.30
2019-03-18T07:47:39.754Z,1.30
2019-03-18T07:50:13.227Z,1.20
2019-03-18T07:52:41.793Z,2.00
2019-03-18T07:55:10.288Z,1.15
2019-03-18T07:57:38.815Z,1.65
2019-03-18T08:00:13.069Z,4.50
2019-03-18T08:02:41.494Z,2.02
2019-03-18T08:05:10.880Z,5.35
2019-03-18T08:07:39.592Z,19.90
2019-03-18T08:10:12.828Z,16.57
2019-03-18T08:12:41.244Z,3.60
2019-03-18T08:15:11.089Z,9.95
2019-03-18T08:17:39.629Z,8.33
2019-03-18T08:20:12.745Z,13.43
2019-03-18T08:22:41.404Z,46.60
2019-03-18T08:25:10.806Z,12.73
2019-03-18T08:27:39.295Z,7.87
2019-03-18T08:30:19.007Z,10.30
2019-03-18T08:32:47.521Z,9.05
2019-03-18T08:35:16.002Z,4.70
2019-03-18T08:37:44.486Z,3.52
2019-03-18T08:40:13.381Z,6.03
2019-03-18T08:42:41.868Z,5.50
2019-03-18T08:45:12.708Z,8.25
2019-03-18T08:47:41.209Z,20.82
2019-03-18T08:50:12.389Z,11.83
2019-03-18T08:52:41.146Z,9.60
2019-03-18T08:55:11.313Z,15.00
2019-03-18T08:57:39.893Z,3.90
2019-03-18T09:00:16.055Z,2.80
2019-03-18T09:02:44.531Z,9.30
2019-03-18T09:05:13.186Z,4.08
2019-03-18T09:07:41.712Z,3.05
2019-03-18T09:10:16.858Z,1.60
2019-03-18T09:12:45.709Z,6.55
2019-03-18T09:15:14.572Z,2.65
2019-03-18T09:17:42.987Z,10.95
2019-03-18T09:20:13.959Z,2.17
2019-03-18T09:22:42.481Z,3.80
2019-03-18T09:25:12.205Z,3.25
2019-03-18T09:27:40.692Z,2.40
2019-03-18T09:30:12.659Z,2.60
2019-03-18T09:32:41.132Z,4.65
2019-03-18T09:35:09.999Z,3.42
2019-03-18T09:37:38.454Z,4.95
2019-03-18T09:40:12.804Z,1.60
2019-03-18T09:42:41.240Z,2.55
2019-03-18T09:45:12.239Z,5.75
2019-03-18T09:50:06.229Z,1.87
2019-03-18T09:52:34.694Z,1.87
2019-03-18T09:55:03.475Z,3.15
2019-03-18T09:57:31.889Z,1.52
2019-03-18T10:00:00.395Z,2.85
2019-03-18T10:02:28.743Z,4.05
2019-03-18T10:04:57.199Z,3.50
2019-03-18T10:07:25.704Z,2.00
2019-03-18T10:09:54.156Z,1.80
2019-03-18T10:12:22.647Z,2.10
2019-03-18T10:14:51.062Z,1.00
2019-03-18T10:17:19.515Z,3.83
2019-03-18T10:19:47.996Z,2.27
2019-03-18T10:22:16.525Z,4.05
2019-03-18T10:24:44.950Z,7.08
2019-03-18T10:27:13.410Z,2.50
2019-03-18T10:29:41.828Z,1.80
2019-03-18T10:32:10.286Z,5.65
2019-03-18T10:34:38.760Z,1.75
2019-03-18T10:37:07.260Z,1.10
2019-03-18T10:39:35.768Z,1.42
2019-03-18T10:42:04.333Z,1.17
2019-03-18T10:44:32.784Z,1.00
2019-03-18T10:47:01.311Z,2.12
2019-03-18T10:49:29.765Z,2.87
2019-03-18T10:51:58.300Z,1.95
2019-03-18T10:54:31.145Z,0.70
2019-03-18T10:56:56.991Z,2.00
2019-03-18T10:59:25.392Z,7.30
2019-03-18T11:01:53.832Z,1.90
2019-03-18T11:04:22.427Z,3.52
2019-03-18T11:06:50.962Z,1.95
2019-03-18T11:09:19.406Z,2.87
2019-03-18T11:11:47.905Z,1.50
2019-03-18T11:14:16.353Z,3.25
2019-03-18T11:16:44.784Z,1.25
2019-03-18T11:19:13.231Z,1.92
2019-03-18T11:21:41.660Z,2.98
2019-03-18T11:24:10.251Z,1.82
2019-03-18T11:26:38.675Z,2.75
2019-03-18T11:29:07.094Z,1.57
2019-03-18T11:31:35.560Z,2.65
2019-03-18T11:34:04.058Z,3.02
2019-03-18T11:36:32.480Z,7.47
2019-03-18T11:39:01.230Z,3.15
2019-03-18T11:41:30.721Z,3.45
2019-03-18T11:43:59.177Z,3.60
2019-03-18T11:46:27.708Z,2.50
2019-03-18T11:48:56.264Z,3.22
2019-03-18T11:51:24.863Z,2.87
2019-03-18T11:53:53.278Z,2.45
2019-03-18T11:56:21.738Z,3.40
2019-03-18T11:58:50.197Z,5.42
2019-03-18T12:01:18.608Z,2.10
2019-03-18T12:03:47.055Z,3.25
2019-03-18T12:06:15.475Z,1.62
2019-03-18T12:08:43.930Z,1.42
2019-03-18T12:11:12.395Z,1.35
2019-03-18T12:13:40.879Z,1.50
2019-03-18T12:16:09.323Z,2.05
2019-03-18T12:18:37.761Z,3.35
2019-03-18T12:21:06.333Z,1.02
2019-03-18T12:23:35.031Z,3.72
2019-03-18T12:26:03.482Z,2.00
2019-03-18T12:28:31.906Z,1.42
2019-03-18T12:31:00.350Z,1.25
2019-03-18T12:33:28.812Z,1.72
2019-03-18T12:35:57.326Z,3.45
2019-03-18T12:38:26.044Z,5.37
2019-03-18T12:40:54.540Z,3.85
2019-03-18T12:43:23.020Z,2.62
2019-03-18T12:45:51.443Z,2.27
2019-03-18T12:48:19.860Z,1.62
2019-03-18T12:50:55.612Z,1.40
2019-03-18T12:53:18.462Z,2.70
2019-03-18T12:55:46.975Z,2.10
2019-03-18T12:58:15.508Z,1.80
2019-03-18T13:00:44.072Z,1.75
2019-03-18T13:03:12.639Z,1.87
2019-03-18T13:05:41.183Z,1.70
2019-03-18T13:08:09.801Z,1.15
2019-03-18T13:10:38.305Z,0.82
2019-03-18T13:13:08.988Z,1.52
2019-03-18T13:15:37.437Z,2.08
2019-03-18T13:18:05.977Z,2.40
2019-03-18T13:20:34.387Z,3.70
2019-03-18T13:23:02.815Z,2.95
2019-03-18T13:25:31.343Z,3.00
2019-03-18T13:27:59.782Z,3.30
2019-03-18T13:30:28.245Z,5.47
2019-03-18T13:32:56.685Z,1.10
2019-03-18T13:35:25.103Z,3.50
2019-03-18T13:37:53.591Z,3.15
2019-03-18T13:40:22.190Z,2.60
2019-03-18T13:42:50.721Z,1.40
2019-03-18T13:45:23.047Z,1.87
2019-03-18T13:47:51.591Z,3.75
2019-03-18T13:50:22.044Z,5.85
2019-03-18T13:52:50.618Z,3.83
2019-03-18T13:55:19.193Z,5.92
2019-03-18T13:57:47.632Z,2.30
2019-03-18T14:00:17.457Z,1.35
2019-03-18T14:02:46.061Z,3.12
2019-03-18T14:05:14.625Z,3.20
2019-03-18T14:07:43.322Z,2.55
2019-03-18T14:10:17.022Z,3.37
2019-03-18T14:12:45.620Z,4.20
2019-03-18T14:15:26.341Z,4.12
2019-03-18T14:17:54.911Z,3.12
2019-03-18T14:20:25.372Z,4.10
2019-03-18T14:22:54.134Z,3.20
2019-03-18T14:25:22.693Z,3.55
2019-03-18T14:27:51.232Z,3.40
2019-03-18T14:30:20.911Z,3.17
2019-03-18T14:32:49.494Z,5.15
2019-03-18T14:35:21.661Z,3.20
2019-03-18T14:37:48.233Z,2.85
2019-03-18T14:40:21.681Z,2.33
2019-03-18T14:42:50.195Z,3.75
2019-03-18T14:45:22.955Z,3.87
2019-03-18T14:47:51.496Z,2.00
2019-03-18T14:50:20.547Z,2.60
2019-03-18T14:52:49.069Z,2.70
2019-03-18T14:55:18.587Z,1.60
2019-03-18T14:57:47.280Z,2.12
2019-03-18T15:00:26.433Z,1.60
2019-03-18T15:02:54.983Z,1.60
2019-03-18T15:05:23.571Z,1.87
2019-03-18T15:07:52.145Z,2.83
2019-03-18T15:10:26.289Z,1.60
2019-03-18T15:12:54.872Z,2.20
2019-03-18T15:15:23.414Z,3.92
2019-03-18T15:17:51.865Z,3.55
2019-03-18T15:20:28.022Z,2.08
2019-03-18T15:22:56.638Z,2.40
2019-03-18T15:25:27.435Z,2.62
2019-03-18T15:27:55.952Z,4.03
2019-03-18T15:30:24.392Z,5.03
2019-03-18T15:32:52.894Z,4.05
2019-03-18T15:35:21.440Z,3.05
2019-03-18T15:37:49.955Z,2.50
2019-03-18T15:40:19.847Z,6.33
2019-03-18T15:42:48.379Z,3.40
2019-03-18T15:45:18.344Z,9.20
2019-03-18T15:47:46.876Z,6.53
2019-03-18T15:50:17.722Z,2.50
2019-03-18T15:52:46.189Z,2.72
2019-03-18T15:55:14.764Z,2.20
2019-03-18T15:57:43.406Z,4.42
2019-03-18T16:00:17.924Z,2.83
2019-03-18T16:02:46.424Z,2.80
2019-03-18T16:05:15.006Z,2.22
2019-03-18T16:07:43.693Z,1.52
2019-03-18T16:10:14.603Z,2.33
2019-03-18T16:12:43.213Z,3.00
2019-03-18T16:15:14.039Z,5.65
2019-03-18T16:17:42.508Z,1.60
2019-03-18T16:20:13.924Z,2.00
2019-03-18T16:22:42.417Z,2.12
2019-03-18T16:25:11.318Z,3.95
2019-03-18T16:27:39.901Z,2.15
2019-03-18T16:30:11.403Z,2.00
2019-03-18T16:32:39.880Z,1.55
2019-03-18T16:35:10.242Z,3.30
2019-03-18T16:37:38.787Z,2.47
2019-03-18T16:40:18.082Z,1.30
2019-03-18T16:42:46.519Z,1.42
2019-03-18T16:45:18.913Z,3.27
2019-03-18T16:47:47.934Z,3.27
2019-03-18T16:50:24.985Z,4.95
2019-03-18T16:52:53.609Z,1.90
2019-03-18T16:55:22.120Z,2.02
2019-03-18T16:57:50.597Z,2.37
2019-03-18T17:00:20.911Z,4.15
2019-03-18T17:02:49.430Z,1.92
2019-03-18T17:05:17.982Z,1.60
2019-03-18T17:07:46.583Z,2.15
2019-03-18T17:10:15.985Z,2.25
2019-03-18T17:12:44.580Z,1.52
2019-03-18T17:15:14.669Z,2.60
2019-03-18T17:17:43.193Z,5.20
2019-03-18T17:20:13.552Z,5.62
2019-03-18T17:22:48.880Z,6.30
2019-03-18T17:25:15.471Z,11.38
2019-03-18T17:27:43.961Z,12.47
2019-03-18T17:30:17.221Z,38.85
2019-03-18T17:32:45.740Z,16.23
2019-03-18T17:35:14.342Z,17.77
2019-03-18T17:37:42.925Z,15.50
2019-03-18T17:40:13.766Z,13.55
2019-03-18T17:42:42.298Z,4.15
2019-03-18T17:45:17.697Z,6.20
2019-03-18T17:47:46.245Z,6.22
2019-03-18T17:50:26.726Z,4.92
2019-03-18T17:53:02.392Z,4.40
2019-03-18T17:55:25.547Z,4.58
2019-03-18T17:57:54.115Z,4.10
2019-03-18T18:00:24.273Z,4.30
2019-03-18T18:02:53.090Z,3.60
2019-03-18T18:05:21.764Z,4.00
2019-03-18T18:07:50.261Z,4.30
2019-03-18T18:10:18.697Z,3.58
2019-03-18T18:12:47.127Z,4.25
2019-03-18T18:15:15.643Z,4.65
2019-03-18T18:17:44.133Z,3.75
2019-03-18T18:20:14.272Z,4.20
2019-03-18T18:22:42.849Z,3.65
2019-03-18T18:25:12.716Z,3.30
2019-03-18T18:27:41.152Z,3.75
2019-03-18T18:30:17.641Z,3.60
2019-03-18T18:32:46.214Z,3.95
2019-03-18T18:35:14.781Z,3.80
2019-03-18T18:37:43.238Z,4.10
2019-03-18T18:40:26.172Z,3.45
2019-03-18T18:42:54.711Z,2.90
2019-03-18T18:45:23.242Z,3.30
2019-03-18T18:47:51.681Z,3.42
2019-03-18T18:50:20.215Z,4.15
2019-03-18T18:52:48.714Z,3.02
2019-03-18T18:55:17.155Z,7.42
2019-03-18T18:57:45.593Z,8.53
2019-03-18T19:00:17.073Z,13.05
2019-03-18T19:02:45.685Z,12.37
2019-03-18T19:05:15.178Z,7.78
2019-03-18T19:07:44.174Z,10.68
2019-03-18T19:10:19.331Z,16.25
2019-03-18T19:12:47.751Z,14.38
2019-03-18T19:15:31.300Z,16.90
2019-03-18T19:17:59.781Z,11.65
2019-03-18T19:20:28.353Z,12.93
2019-03-18T19:22:56.776Z,7.45
2019-03-18T19:25:25.328Z,11.28
2019-03-18T19:27:53.879Z,10.23
2019-03-18T19:30:23.283Z,8.48
2019-03-18T19:32:51.849Z,8.28
2019-03-18T19:35:20.272Z,7.15
2019-03-18T19:37:48.795Z,6.10
2019-03-18T19:40:22.316Z,5.72
2019-03-18T19:42:50.814Z,6.75
2019-03-18T19:45:19.348Z,6.90
2019-03-18T19:47:47.859Z,6.35
2019-03-18T19:50:18.792Z,6.75
2019-03-18T19:52:47.276Z,5.37
2019-03-18T19:55:15.907Z,12.07
2019-03-18T19:57:44.418Z,9.70
2019-03-18T20:00:18.724Z,10.93
2019-03-18T20:02:47.180Z,8.65
2019-03-18T20:05:18.644Z,7.42
2019-03-18T20:07:45.956Z,6.30
2019-03-18T20:10:15.964Z,7.95
2019-03-18T20:12:46.102Z,5.70
2019-03-18T20:15:16.066Z,7.90
2019-03-18T20:17:44.741Z,5.92
2019-03-18T20:20:18.408Z,6.67
2019-03-18T20:22:46.910Z,6.20
2019-03-18T20:25:15.505Z,7.45
2019-03-18T20:27:44.312Z,5.08
2019-03-18T20:30:15.803Z,6.65
2019-03-18T20:32:44.626Z,5.95
2019-03-18T20:35:18.423Z,7.17
2019-03-18T20:37:46.913Z,5.50
2019-03-18T20:40:16.397Z,7.90
2019-03-18T20:42:45.372Z,6.22
2019-03-18T20:45:16.215Z,6.28
2019-03-18T20:47:44.816Z,5.87
2019-03-18T20:50:15.634Z,5.30
2019-03-18T20:52:44.266Z,5.78
2019-03-18T20:55:13.730Z,5.10
2019-03-18T20:57:42.193Z,6.50
2019-03-18T21:00:16.058Z,10.35
2019-03-18T21:02:44.558Z,6.60
2019-03-18T21:05:13.166Z,8.00
2019-03-18T21:07:41.753Z,8.20
2019-03-18T21:10:15.258Z,7.08
2019-03-18T21:12:43.861Z,7.85
2019-03-18T21:15:13.475Z,7.72
2019-03-18T21:17:42.034Z,8.15
2019-03-18T21:20:17.446Z,8.60
2019-03-18T21:22:45.933Z,11.08
2019-03-18T21:25:14.503Z,10.05
2019-03-18T21:27:42.973Z,8.73
2019-03-18T21:30:19.736Z,11.97
2019-03-18T21:32:48.354Z,9.33
2019-03-18T21:35:16.943Z,8.53
2019-03-18T21:37:45.447Z,7.95
2019-03-18T21:40:18.631Z,8.08
2019-03-18T21:42:47.155Z,7.62
2019-03-18T21:45:19.892Z,9.50
2019-03-18T21:47:48.443Z,10.30
2019-03-18T21:50:17.412Z,7.70
2019-03-18T21:52:46.022Z,7.87
2019-03-18T21:55:16.345Z,9.98
2019-03-18T21:57:44.909Z,11.22
2019-03-18T22:00:18.491Z,9.95
2019-03-18T22:02:47.025Z,18.48
2019-03-18T22:05:15.694Z,9.55
2019-03-18T22:07:44.224Z,12.75
2019-03-18T22:10:15.070Z,36.55
2019-03-18T22:12:43.516Z,20.15
2019-03-18T22:15:13.596Z,15.32
2019-03-18T22:17:42.168Z,10.32
2019-03-18T22:20:15.467Z,19.15
2019-03-18T22:22:44.402Z,19.27
2019-03-18T22:25:13.761Z,12.13
2019-03-18T22:27:42.340Z,9.55
2019-03-18T22:30:18.310Z,15.15
2019-03-18T22:32:47.097Z,20.35
2019-03-18T22:35:16.357Z,18.12
2019-03-18T22:37:44.871Z,12.65
2019-03-18T22:40:15.960Z,10.05
2019-03-18T22:42:44.493Z,8.43
2019-03-18T22:45:14.230Z,9.00
2019-03-18T22:47:42.657Z,32.25
2019-03-18T22:50:13.221Z,39.10
2019-03-18T22:52:41.768Z,36.63
2019-03-18T22:55:14.461Z,35.88
2019-03-18T22:57:43.062Z,17.92
2019-03-18T23:00:26.900Z,13.15
2019-03-18T23:02:55.425Z,10.58
2019-03-18T23:05:24.003Z,6.12
2019-03-18T23:07:52.527Z,8.25
2019-03-18T23:10:21.040Z,7.90
2019-03-18T23:12:49.527Z,5.97
2019-03-18T23:15:18.004Z,8.05
2019-03-18T23:17:46.493Z,7.20
2019-03-18T23:20:15.090Z,8.75
2019-03-18T23:22:43.501Z,8.85
2019-03-18T23:25:12.074Z,11.70
2019-03-18T23:27:40.524Z,17.17
2019-03-18T23:30:16.276Z,10.70
2019-03-18T23:32:44.803Z,8.80
2019-03-18T23:35:13.319Z,8.85
2019-03-18T23:37:41.899Z,8.10
2019-03-18T23:40:12.551Z,7.70
2019-03-18T23:42:40.971Z,7.62
2019-03-18T23:45:10.760Z,7.55
2019-03-18T23:47:39.306Z,11.18
2019-03-18T23:50:10.863Z,9.45
2019-03-18T23:52:39.238Z,8.23
2019-03-18T23:55:18.412Z,6.40
2019-03-18T23:57:39.500Z,6.95
